sensor_id;sensor_type;location;lat;lon;timestamp;temperature;humidity
20035;DHT22;10178;48.034;9.800;2022-07-04T00:00:17;24.80;99.90
20035;DHT22;10178;48.034;9.800;2022-07-04T00:02:44;24.90;99.90
20035;DHT22;10178;48.034;9.800;2022-07-04T00:05:11;24.90;99.90
20035;DHT22;10178;48.034;9.800;2022-07-04T00:07:41;24.90;99.90
20035;DHT22;10178;48.034;9.800;2022-07-04T00:10:08;24.90;99.90
20035;DHT22;10178;48.034;9.800;2022-07-04T00:12:35;24.90;99.90
20035;DHT22;10178;48.034;9.800;2022-07-04T00:15:02;24.90;99.90
20035;DHT22;10178;48.034;9.800;2022-07-04T00:17:28;25.00;99.90
20035;DHT22;10178;48.034;9.800;2022-07-04T00:19:54;25.00;99.90
20035;DHT22;10178;48.034;9.800;2022-07-04T00:22:19;24.90;99.90
20035;DHT22;10178;48.034;9.800;2022-07-04T00:24:45;24.90;99.90
20035;DHT22;10178;48.034;9.800;2022-07-04T00:27:11;24.90;99.90
20035;DHT22;10178;48.034;9.800;2022-07-04T00:29:36;24.90;99.90
20035;DHT22;10178;48.034;9.800;2022-07-04T00:32:02;24.90;99.90
20035;DHT22;10178;48.034;9.800;2022-07-04T00:34:32;24.70;99.90
20035;DHT22;10178;48.034;9.800;2022-07-04T00:36:58;24.20;99.90
20035;DHT22;10178;48.034;9.800;2022-07-04T00:39:23;23.70;99.90
20035;DHT22;10178;48.034;9.800;2022-07-04T00:41:49;22.60;99.90
20035;DHT22;10178;48.034;9.800;2022-07-04T00:44:15;22.90;99.90
20035;DHT22;10178;48.034;9.800;2022-07-04T00:46:45;23.50;99.90
20035;DHT22;10178;48.034;9.800;2022-07-04T00:49:12;23.90;99.90
20035;DHT22;10178;48.034;9.800;2022-07-04T00:51:40;24.20;99.90
20035;DHT22;10178;48.034;9.800;2022-07-04T00:54:07;24.40;99.90
20035;DHT22;10178;48.034;9.800;2022-07-04T00:56:37;24.20;99.90
20035;DHT22;10178;48.034;9.800;2022-07-04T00:59:04;24.20;99.90
20035;DHT22;10178;48.034;9.800;2022-07-04T01:01:31;24.10;99.90
20035;DHT22;10178;48.034;9.800;2022-07-04T01:03:57;24.20;99.90
20035;DHT22;10178;48.034;9.800;2022-07-04T01:06:23;22.90;99.90
20035;DHT22;10178;48.034;9.800;2022-07-04T01:08:48;22.60;99.90
20035;DHT22;10178;48.034;9.800;2022-07-04T01:11:14;22.40;99.90
20035;DHT22;10178;48.034;9.800;2022-07-04T01:13:41;22.50;99.90
20035;DHT22;10178;48.034;9.800;2022-07-04T01:16:10;22.60;99.90
20035;DHT22;10178;48.034;9.800;2022-07-04T01:18:37;22.20;99.90
20035;DHT22;10178;48.034;9.800;2022-07-04T01:21:03;22.30;99.90
20035;DHT22;10178;48.034;9.800;2022-07-04T01:23:29;22.70;99.90
20035;DHT22;10178;48.034;9.800;2022-07-04T01:25:56;22.20;99.90
20035;DHT22;10178;48.034;9.800;2022-07-04T01:28:22;21.40;99.90
20035;DHT22;10178;48.034;9.800;2022-07-04T01:30:48;21.70;99.90
20035;DHT22;10178;48.034;9.800;2022-07-04T01:33:14;22.30;99.90
20035;DHT22;10178;48.034;9.800;2022-07-04T01:35:40;22.90;99.90
20035;DHT22;10178;48.034;9.800;2022-07-04T01:38:06;23.30;99.90
20035;DHT22;10178;48.034;9.800;2022-07-04T01:40:32;23.60;99.90
20035;DHT22;10178;48.034;9.800;2022-07-04T01:42:58;23.80;99.90
20035;DHT22;10178;48.034;9.800;2022-07-04T01:45:24;23.90;99.90
20035;DHT22;10178;48.034;9.800;2022-07-04T01:47:50;23.70;99.90
20035;DHT22;10178;48.034;9.800;2022-07-04T01:50:16;23.80;99.90
20035;DHT22;10178;48.034;9.800;2022-07-04T01:52:42;23.90;99.90
20035;DHT22;10178;48.034;9.800;2022-07-04T01:55:09;23.90;99.90
20035;DHT22;10178;48.034;9.800;2022-07-04T01:57:35;24.00;99.90
20035;DHT22;10178;48.034;9.800;2022-07-04T02:00:01;23.90;99.90
20035;DHT22;10178;48.034;9.800;2022-07-04T02:02:45;23.70;99.90
20035;DHT22;10178;48.034;9.800;2022-07-04T02:05:11;22.00;99.90
20035;DHT22;10178;48.034;9.800;2022-07-04T02:07:37;20.80;99.90
20035;DHT22;10178;48.034;9.800;2022-07-04T02:10:02;20.10;99.90
20035;DHT22;10178;48.034;9.800;2022-07-04T02:12:28;19.60;99.90
20035;DHT22;10178;48.034;9.800;2022-07-04T02:15:12;19.20;99.90
20035;DHT22;10178;48.034;9.800;2022-07-04T02:17:38;19.00;99.90
20035;DHT22;10178;48.034;9.800;2022-07-04T02:20:04;19.70;99.90
20035;DHT22;10178;48.034;9.800;2022-07-04T02:22:30;20.60;99.90
20035;DHT22;10178;48.034;9.800;2022-07-04T02:24:56;20.90;99.90
20035;DHT22;10178;48.034;9.800;2022-07-04T02:27:22;20.80;99.90
20035;DHT22;10178;48.034;9.800;2022-07-04T02:29:47;20.90;99.90
20035;DHT22;10178;48.034;9.800;2022-07-04T02:32:13;21.10;99.90
20035;DHT22;10178;48.034;9.800;2022-07-04T02:34:39;21.70;99.90
20035;DHT22;10178;48.034;9.800;2022-07-04T02:37:05;22.50;99.90
20035;DHT22;10178;48.034;9.800;2022-07-04T02:39:30;23.10;99.90
20035;DHT22;10178;48.034;9.800;2022-07-04T02:41:56;22.60;99.90
20035;DHT22;10178;48.034;9.800;2022-07-04T02:44:22;22.40;99.90
20035;DHT22;10178;48.034;9.800;2022-07-04T02:46:47;20.50;99.90
20035;DHT22;10178;48.034;9.800;2022-07-04T02:49:16;19.70;99.90
20035;DHT22;10178;48.034;9.800;2022-07-04T02:51:44;19.10;99.90
20035;DHT22;10178;48.034;9.800;2022-07-04T02:54:10;18.80;99.90
20035;DHT22;10178;48.034;9.800;2022-07-04T02:56:36;18.80;99.90
20035;DHT22;10178;48.034;9.800;2022-07-04T02:59:16;18.80;99.90
20035;DHT22;10178;48.034;9.800;2022-07-04T03:01:44;18.90;99.90
20035;DHT22;10178;48.034;9.800;2022-07-04T03:04:10;19.10;99.90
20035;DHT22;10178;48.034;9.800;2022-07-04T03:06:36;20.00;99.90
20035;DHT22;10178;48.034;9.800;2022-07-04T03:09:13;20.80;99.90
20035;DHT22;10178;48.034;9.800;2022-07-04T03:11:46;21.60;99.90
20035;DHT22;10178;48.034;9.800;2022-07-04T03:14:12;22.30;99.90
20035;DHT22;10178;48.034;9.800;2022-07-04T03:16:43;21.50;99.90
20035;DHT22;10178;48.034;9.800;2022-07-04T03:19:23;21.70;99.90
20035;DHT22;10178;48.034;9.800;2022-07-04T03:21:48;22.10;99.90
20035;DHT22;10178;48.034;9.800;2022-07-04T03:24:22;22.50;99.90
20035;DHT22;10178;48.034;9.800;2022-07-04T03:27:10;22.30;99.90
20035;DHT22;10178;48.034;9.800;2022-07-04T03:29:38;20.40;99.90
20035;DHT22;10178;48.034;9.800;2022-07-04T03:32:07;19.60;99.90
20035;DHT22;10178;48.034;9.800;2022-07-04T03:34:33;19.20;99.90
20035;DHT22;10178;48.034;9.800;2022-07-04T03:37:19;19.30;99.90
20035;DHT22;10178;48.034;9.800;2022-07-04T03:39:54;19.30;99.90
20035;DHT22;10178;48.034;9.800;2022-07-04T03:45:13;20.00;99.90
20035;DHT22;10178;48.034;9.800;2022-07-04T03:51:12;21.40;99.90
20035;DHT22;10178;48.034;9.800;2022-07-04T03:53:49;21.30;99.90
20035;DHT22;10178;48.034;9.800;2022-07-04T03:56:46;19.90;99.90
20035;DHT22;10178;48.034;9.800;2022-07-04T03:59:12;19.30;99.90
20035;DHT22;10178;48.034;9.800;2022-07-04T04:01:38;18.80;99.90
20035;DHT22;10178;48.034;9.800;2022-07-04T04:04:04;18.70;99.90
20035;DHT22;10178;48.034;9.800;2022-07-04T04:06:48;18.60;99.90
20035;DHT22;10178;48.034;9.800;2022-07-04T04:09:13;18.70;99.90
20035;DHT22;10178;48.034;9.800;2022-07-04T04:11:43;18.70;99.90
20035;DHT22;10178;48.034;9.800;2022-07-04T04:14:09;18.70;99.90
20035;DHT22;10178;48.034;9.800;2022-07-04T04:16:35;19.20;99.90
20035;DHT22;10178;48.034;9.800;2022-07-04T04:19:07;20.10;99.90
20035;DHT22;10178;48.034;9.800;2022-07-04T04:21:48;20.50;99.90
20035;DHT22;10178;48.034;9.800;2022-07-04T04:24:14;19.90;99.90
20035;DHT22;10178;48.034;9.800;2022-07-04T04:26:39;19.70;99.90
20035;DHT22;10178;48.034;9.800;2022-07-04T04:29:05;19.70;99.90
20035;DHT22;10178;48.034;9.800;2022-07-04T04:31:31;19.60;99.90
20035;DHT22;10178;48.034;9.800;2022-07-04T04:33:56;19.50;99.90
20035;DHT22;10178;48.034;9.800;2022-07-04T04:36:22;20.30;99.90
20035;DHT22;10178;48.034;9.800;2022-07-04T04:38:48;21.00;99.90
20035;DHT22;10178;48.034;9.800;2022-07-04T04:41:14;21.30;99.90
20035;DHT22;10178;48.034;9.800;2022-07-04T04:43:39;21.60;99.90
20035;DHT22;10178;48.034;9.800;2022-07-04T04:46:05;21.80;99.90
20035;DHT22;10178;48.034;9.800;2022-07-04T04:48:31;21.90;99.90
20035;DHT22;10178;48.034;9.800;2022-07-04T04:50:56;21.80;99.90
20035;DHT22;10178;48.034;9.800;2022-07-04T04:53:22;21.90;99.90
20035;DHT22;10178;48.034;9.800;2022-07-04T04:55:51;22.10;99.90
20035;DHT22;10178;48.034;9.800;2022-07-04T04:58:18;22.20;99.90
20035;DHT22;10178;48.034;9.800;2022-07-04T05:00:44;22.10;99.90
20035;DHT22;10178;48.034;9.800;2022-07-04T05:03:10;21.80;99.90
20035;DHT22;10178;48.034;9.800;2022-07-04T05:05:35;21.90;99.90
20035;DHT22;10178;48.034;9.800;2022-07-04T05:08:01;21.80;99.90
20035;DHT22;10178;48.034;9.800;2022-07-04T05:10:27;21.90;99.90
20035;DHT22;10178;48.034;9.800;2022-07-04T05:12:52;22.10;99.90
20035;DHT22;10178;48.034;9.800;2022-07-04T05:15:18;22.20;99.90
20035;DHT22;10178;48.034;9.800;2022-07-04T05:17:44;22.00;99.90
20035;DHT22;10178;48.034;9.800;2022-07-04T05:20:10;22.00;99.90
20035;DHT22;10178;48.034;9.800;2022-07-04T05:22:35;22.10;99.90
20035;DHT22;10178;48.034;9.800;2022-07-04T05:25:01;22.20;99.90
20035;DHT22;10178;48.034;9.800;2022-07-04T05:27:27;22.30;99.90
20035;DHT22;10178;48.034;9.800;2022-07-04T05:29:53;22.00;99.90
20035;DHT22;10178;48.034;9.800;2022-07-04T05:32:19;21.50;99.90
20035;DHT22;10178;48.034;9.800;2022-07-04T05:34:44;21.60;99.90
20035;DHT22;10178;48.034;9.800;2022-07-04T05:37:10;21.90;99.90
20035;DHT22;10178;48.034;9.800;2022-07-04T05:39:35;22.10;99.90
20035;DHT22;10178;48.034;9.800;2022-07-04T05:42:01;21.60;99.90
20035;DHT22;10178;48.034;9.800;2022-07-04T05:44:27;21.80;99.90
20035;DHT22;10178;48.034;9.800;2022-07-04T05:46:54;22.00;99.90
20035;DHT22;10178;48.034;9.800;2022-07-04T05:49:19;21.90;99.90
20035;DHT22;10178;48.034;9.800;2022-07-04T05:51:45;22.10;99.90
20035;DHT22;10178;48.034;9.800;2022-07-04T05:54:11;22.20;99.90
20035;DHT22;10178;48.034;9.800;2022-07-04T05:56:36;22.40;99.90
20035;DHT22;10178;48.034;9.800;2022-07-04T05:59:03;22.50;99.90
20035;DHT22;10178;48.034;9.800;2022-07-04T06:01:29;22.50;99.90
20035;DHT22;10178;48.034;9.800;2022-07-04T06:03:54;22.60;99.90
20035;DHT22;10178;48.034;9.800;2022-07-04T06:06:20;22.60;99.90
20035;DHT22;10178;48.034;9.800;2022-07-04T06:08:46;22.60;99.90
20035;DHT22;10178;48.034;9.800;2022-07-04T06:11:11;22.60;99.90
20035;DHT22;10178;48.034;9.800;2022-07-04T06:13:37;22.60;99.90
20035;DHT22;10178;48.034;9.800;2022-07-04T06:16:05;22.60;99.90
20035;DHT22;10178;48.034;9.800;2022-07-04T06:18:31;22.60;99.90
20035;DHT22;10178;48.034;9.800;2022-07-04T06:20:56;22.50;99.90
20035;DHT22;10178;48.034;9.800;2022-07-04T06:23:22;22.40;99.90
20035;DHT22;10178;48.034;9.800;2022-07-04T06:25:48;22.30;99.90
20035;DHT22;10178;48.034;9.800;2022-07-04T06:28:13;22.10;99.90
20035;DHT22;10178;48.034;9.800;2022-07-04T06:30:39;22.10;99.90
20035;DHT22;10178;48.034;9.800;2022-07-04T06:33:05;22.10;99.90
20035;DHT22;10178;48.034;9.800;2022-07-04T06:35:31;22.10;99.90
20035;DHT22;10178;48.034;9.800;2022-07-04T06:38:16;22.20;99.90
20035;DHT22;10178;48.034;9.800;2022-07-04T06:40:42;22.10;99.90
20035;DHT22;10178;48.034;9.800;2022-07-04T06:43:09;22.10;99.90
20035;DHT22;10178;48.034;9.800;2022-07-04T06:45:35;22.00;99.90
20035;DHT22;10178;48.034;9.800;2022-07-04T06:48:05;22.10;99.90
20035;DHT22;10178;48.034;9.800;2022-07-04T06:50:31;22.00;99.90
20035;DHT22;10178;48.034;9.800;2022-07-04T06:53:08;21.90;99.90
20035;DHT22;10178;48.034;9.800;2022-07-04T06:55:36;22.00;99.90
20035;DHT22;10178;48.034;9.800;2022-07-04T06:58:02;22.00;99.90
20035;DHT22;10178;48.034;9.800;2022-07-04T07:00:28;22.10;99.90
20035;DHT22;10178;48.034;9.800;2022-07-04T07:02:58;22.20;99.90
20035;DHT22;10178;48.034;9.800;2022-07-04T07:05:27;22.40;99.90
20035;DHT22;10178;48.034;9.800;2022-07-04T07:07:54;22.50;99.90
20035;DHT22;10178;48.034;9.800;2022-07-04T07:10:20;22.40;99.90
20035;DHT22;10178;48.034;9.800;2022-07-04T07:12:46;22.40;99.90
20035;DHT22;10178;48.034;9.800;2022-07-04T07:15:12;22.50;99.90
20035;DHT22;10178;48.034;9.800;2022-07-04T07:17:39;22.50;99.90
20035;DHT22;10178;48.034;9.800;2022-07-04T07:20:05;22.30;99.90
20035;DHT22;10178;48.034;9.800;2022-07-04T07:22:31;22.20;99.90
20035;DHT22;10178;48.034;9.800;2022-07-04T07:24:57;22.10;99.90
20035;DHT22;10178;48.034;9.800;2022-07-04T07:27:22;22.20;99.90
20035;DHT22;10178;48.034;9.800;2022-07-04T07:29:48;22.10;99.90
20035;DHT22;10178;48.034;9.800;2022-07-04T07:32:14;22.10;99.90
20035;DHT22;10178;48.034;9.800;2022-07-04T07:34:39;22.30;99.90
20035;DHT22;10178;48.034;9.800;2022-07-04T07:37:06;22.40;99.90
20035;DHT22;10178;48.034;9.800;2022-07-04T07:39:32;22.50;99.90
20035;DHT22;10178;48.034;9.800;2022-07-04T07:41:57;22.60;99.90
20035;DHT22;10178;48.034;9.800;2022-07-04T07:44:23;22.70;99.90
20035;DHT22;10178;48.034;9.800;2022-07-04T07:46:49;22.80;99.90
20035;DHT22;10178;48.034;9.800;2022-07-04T07:49:14;22.90;99.90
20035;DHT22;10178;48.034;9.800;2022-07-04T07:51:40;22.90;99.90
20035;DHT22;10178;48.034;9.800;2022-07-04T07:54:06;22.90;99.90
20035;DHT22;10178;48.034;9.800;2022-07-04T07:56:32;23.00;99.90
20035;DHT22;10178;48.034;9.800;2022-07-04T07:58:57;23.20;99.90
20035;DHT22;10178;48.034;9.800;2022-07-04T08:01:23;23.20;99.90
20035;DHT22;10178;48.034;9.800;2022-07-04T08:03:49;23.40;99.90
20035;DHT22;10178;48.034;9.800;2022-07-04T08:06:34;23.50;99.90
20035;DHT22;10178;48.034;9.800;2022-07-04T08:08:59;23.50;99.90
20035;DHT22;10178;48.034;9.800;2022-07-04T08:11:25;23.60;99.90
20035;DHT22;10178;48.034;9.800;2022-07-04T08:13:51;23.50;99.90
20035;DHT22;10178;48.034;9.800;2022-07-04T08:16:17;23.80;99.90
20035;DHT22;10178;48.034;9.800;2022-07-04T08:18:43;23.80;99.90
20035;DHT22;10178;48.034;9.800;2022-07-04T08:21:08;23.90;99.90
20035;DHT22;10178;48.034;9.800;2022-07-04T08:23:35;24.10;99.90
20035;DHT22;10178;48.034;9.800;2022-07-04T08:26:01;24.20;99.90
20035;DHT22;10178;48.034;9.800;2022-07-04T08:28:28;24.50;99.90
20035;DHT22;10178;48.034;9.800;2022-07-04T08:30:54;24.40;99.90
20035;DHT22;10178;48.034;9.800;2022-07-04T08:33:20;24.30;99.90
20035;DHT22;10178;48.034;9.800;2022-07-04T08:35:45;24.20;99.90
20035;DHT22;10178;48.034;9.800;2022-07-04T08:38:11;24.40;99.90
20035;DHT22;10178;48.034;9.800;2022-07-04T08:40:37;24.60;99.90
20035;DHT22;10178;48.034;9.800;2022-07-04T08:43:05;24.90;99.90
20035;DHT22;10178;48.034;9.800;2022-07-04T08:45:33;24.90;99.90
20035;DHT22;10178;48.034;9.800;2022-07-04T08:48:05;24.80;99.90
20035;DHT22;10178;48.034;9.800;2022-07-04T08:50:43;25.10;99.90
20035;DHT22;10178;48.034;9.800;2022-07-04T08:53:14;25.20;99.90
20035;DHT22;10178;48.034;9.800;2022-07-04T08:55:41;25.10;99.90
20035;DHT22;10178;48.034;9.800;2022-07-04T08:58:26;24.90;99.90
20035;DHT22;10178;48.034;9.800;2022-07-04T09:00:56;24.60;99.90
20035;DHT22;10178;48.034;9.800;2022-07-04T09:03:23;24.40;99.90
20035;DHT22;10178;48.034;9.800;2022-07-04T09:05:49;24.40;99.90
20035;DHT22;10178;48.034;9.800;2022-07-04T09:08:16;23.80;99.90
20035;DHT22;10178;48.034;9.800;2022-07-04T09:10:41;23.70;99.90
20035;DHT22;10178;48.034;9.800;2022-07-04T09:13:08;23.20;99.90
20035;DHT22;10178;48.034;9.800;2022-07-04T09:15:35;23.20;99.90
20035;DHT22;10178;48.034;9.800;2022-07-04T09:18:01;23.30;99.90
20035;DHT22;10178;48.034;9.800;2022-07-04T09:20:30;23.50;99.90
20035;DHT22;10178;48.034;9.800;2022-07-04T09:22:56;23.70;99.90
20035;DHT22;10178;48.034;9.800;2022-07-04T09:25:23;23.70;99.90
20035;DHT22;10178;48.034;9.800;2022-07-04T09:27:51;23.70;99.90
20035;DHT22;10178;48.034;9.800;2022-07-04T09:30:22;23.90;99.90
20035;DHT22;10178;48.034;9.800;2022-07-04T09:32:50;23.90;99.90
20035;DHT22;10178;48.034;9.800;2022-07-04T09:35:21;24.00;99.90
20035;DHT22;10178;48.034;9.800;2022-07-04T09:37:58;24.20;99.90
20035;DHT22;10178;48.034;9.800;2022-07-04T09:40:39;24.20;99.90
20035;DHT22;10178;48.034;9.800;2022-07-04T09:43:24;24.20;99.90
20035;DHT22;10178;48.034;9.800;2022-07-04T09:45:54;24.20;99.90
20035;DHT22;10178;48.034;9.800;2022-07-04T09:48:23;24.20;99.90
20035;DHT22;10178;48.034;9.800;2022-07-04T09:50:49;24.10;99.90
20035;DHT22;10178;48.034;9.800;2022-07-04T09:53:15;24.10;99.90
20035;DHT22;10178;48.034;9.800;2022-07-04T09:55:41;24.20;99.90
20035;DHT22;10178;48.034;9.800;2022-07-04T09:58:08;24.20;99.90
20035;DHT22;10178;48.034;9.800;2022-07-04T10:00:45;24.30;99.90
20035;DHT22;10178;48.034;9.800;2022-07-04T10:06:13;24.60;99.90
20035;DHT22;10178;48.034;9.800;2022-07-04T10:08:42;25.00;99.90
20035;DHT22;10178;48.034;9.800;2022-07-04T10:11:09;25.20;99.90
20035;DHT22;10178;48.034;9.800;2022-07-04T10:13:36;25.30;99.90
20035;DHT22;10178;48.034;9.800;2022-07-04T10:16:01;25.10;99.90
20035;DHT22;10178;48.034;9.800;2022-07-04T10:18:27;24.70;99.90
20035;DHT22;10178;48.034;9.800;2022-07-04T10:20:54;24.80;99.90
20035;DHT22;10178;48.034;9.800;2022-07-04T10:23:21;24.50;99.90
20035;DHT22;10178;48.034;9.800;2022-07-04T10:25:51;24.30;99.90
20035;DHT22;10178;48.034;9.800;2022-07-04T10:28:18;24.60;99.90
20035;DHT22;10178;48.034;9.800;2022-07-04T10:30:47;24.90;99.90
20035;DHT22;10178;48.034;9.800;2022-07-04T10:33:15;25.20;99.90
20035;DHT22;10178;48.034;9.800;2022-07-04T10:36:04;25.30;99.90
20035;DHT22;10178;48.034;9.800;2022-07-04T10:39:02;25.30;99.90
20035;DHT22;10178;48.034;9.800;2022-07-04T10:41:29;25.30;99.90
20035;DHT22;10178;48.034;9.800;2022-07-04T10:44:00;25.30;99.90
20035;DHT22;10178;48.034;9.800;2022-07-04T10:49:04;25.00;99.90
20035;DHT22;10178;48.034;9.800;2022-07-04T11:01:36;24.90;99.90
20035;DHT22;10178;48.034;9.800;2022-07-04T11:04:02;25.10;99.90
20035;DHT22;10178;48.034;9.800;2022-07-04T11:09:13;25.40;99.90
20035;DHT22;10178;48.034;9.800;2022-07-04T11:11:49;25.50;99.90
20035;DHT22;10178;48.034;9.800;2022-07-04T11:14:42;25.70;99.90
20035;DHT22;10178;48.034;9.800;2022-07-04T11:17:37;25.80;99.90
20035;DHT22;10178;48.034;9.800;2022-07-04T11:20:03;25.70;99.90
20035;DHT22;10178;48.034;9.800;2022-07-04T11:22:29;25.70;99.90
20035;DHT22;10178;48.034;9.800;2022-07-04T11:24:56;25.60;99.90
20035;DHT22;10178;48.034;9.800;2022-07-04T11:27:22;25.60;99.90
20035;DHT22;10178;48.034;9.800;2022-07-04T11:29:55;25.50;99.90
20035;DHT22;10178;48.034;9.800;2022-07-04T11:32:29;25.50;99.90
20035;DHT22;10178;48.034;9.800;2022-07-04T11:34:55;25.60;99.90
20035;DHT22;10178;48.034;9.800;2022-07-04T11:37:21;25.70;99.90
20035;DHT22;10178;48.034;9.800;2022-07-04T11:39:51;25.70;99.90
20035;DHT22;10178;48.034;9.800;2022-07-04T11:42:17;25.50;99.90
20035;DHT22;10178;48.034;9.800;2022-07-04T11:45:21;25.50;99.90
20035;DHT22;10178;48.034;9.800;2022-07-04T11:47:46;25.60;99.90
20035;DHT22;10178;48.034;9.800;2022-07-04T11:50:14;25.60;99.90
20035;DHT22;10178;48.034;9.800;2022-07-04T11:52:45;25.50;99.90
20035;DHT22;10178;48.034;9.800;2022-07-04T11:55:13;25.40;99.90
20035;DHT22;10178;48.034;9.800;2022-07-04T11:57:41;25.30;99.90
20035;DHT22;10178;48.034;9.800;2022-07-04T12:00:11;25.40;99.90
20035;DHT22;10178;48.034;9.800;2022-07-04T12:02:38;25.50;99.90
20035;DHT22;10178;48.034;9.800;2022-07-04T12:05:06;25.50;99.90
20035;DHT22;10178;48.034;9.800;2022-07-04T12:07:33;25.50;99.90
20035;DHT22;10178;48.034;9.800;2022-07-04T12:10:18;25.70;99.90
20035;DHT22;10178;48.034;9.800;2022-07-04T12:15:24;25.50;99.90
20035;DHT22;10178;48.034;9.800;2022-07-04T12:17:54;25.50;99.90
20035;DHT22;10178;48.034;9.800;2022-07-04T12:20:21;25.60;99.90
20035;DHT22;10178;48.034;9.800;2022-07-04T12:23:00;25.80;99.90
20035;DHT22;10178;48.034;9.800;2022-07-04T12:25:34;25.90;99.90
20035;DHT22;10178;48.034;9.800;2022-07-04T12:28:10;25.80;99.90
20035;DHT22;10178;48.034;9.800;2022-07-04T12:30:38;25.70;99.90
20035;DHT22;10178;48.034;9.800;2022-07-04T12:33:06;25.50;99.90
20035;DHT22;10178;48.034;9.800;2022-07-04T12:38:04;25.70;99.90
20035;DHT22;10178;48.034;9.800;2022-07-04T12:40:31;25.60;99.90
20035;DHT22;10178;48.034;9.800;2022-07-04T12:42:57;25.60;99.90
20035;DHT22;10178;48.034;9.800;2022-07-04T12:45:23;25.60;99.90
20035;DHT22;10178;48.034;9.800;2022-07-04T12:47:49;25.80;99.90
20035;DHT22;10178;48.034;9.800;2022-07-04T12:50:15;25.80;99.90
20035;DHT22;10178;48.034;9.800;2022-07-04T12:52:41;25.80;99.90
20035;DHT22;10178;48.034;9.800;2022-07-04T12:55:09;25.80;99.90
20035;DHT22;10178;48.034;9.800;2022-07-04T12:57:36;25.90;99.90
20035;DHT22;10178;48.034;9.800;2022-07-04T13:00:02;25.90;99.90
20035;DHT22;10178;48.034;9.800;2022-07-04T13:02:28;25.80;99.90
20035;DHT22;10178;48.034;9.800;2022-07-04T13:04:54;25.80;99.90
20035;DHT22;10178;48.034;9.800;2022-07-04T13:07:20;25.90;99.90
20035;DHT22;10178;48.034;9.800;2022-07-04T13:09:46;25.90;99.90
20035;DHT22;10178;48.034;9.800;2022-07-04T13:12:13;25.90;99.90
20035;DHT22;10178;48.034;9.800;2022-07-04T13:14:59;25.90;99.90
20035;DHT22;10178;48.034;9.800;2022-07-04T13:17:26;25.90;99.90
20035;DHT22;10178;48.034;9.800;2022-07-04T13:19:52;25.90;99.90
20035;DHT22;10178;48.034;9.800;2022-07-04T13:22:19;25.90;99.90
20035;DHT22;10178;48.034;9.800;2022-07-04T13:24:45;25.90;99.90
20035;DHT22;10178;48.034;9.800;2022-07-04T13:27:11;26.00;99.90
20035;DHT22;10178;48.034;9.800;2022-07-04T13:29:36;26.00;99.90
20035;DHT22;10178;48.034;9.800;2022-07-04T13:32:03;25.90;99.90
20035;DHT22;10178;48.034;9.800;2022-07-04T13:34:30;25.90;99.90
20035;DHT22;10178;48.034;9.800;2022-07-04T13:36:55;25.80;99.90
20035;DHT22;10178;48.034;9.800;2022-07-04T13:39:22;25.80;99.90
20035;DHT22;10178;48.034;9.800;2022-07-04T13:41:48;25.70;99.90
20035;DHT22;10178;48.034;9.800;2022-07-04T13:44:14;25.60;99.90
20035;DHT22;10178;48.034;9.800;2022-07-04T13:46:42;25.60;99.90
20035;DHT22;10178;48.034;9.800;2022-07-04T13:49:08;25.50;99.90
20035;DHT22;10178;48.034;9.800;2022-07-04T13:51:33;25.50;99.90
20035;DHT22;10178;48.034;9.800;2022-07-04T13:53:59;25.50;99.90
20035;DHT22;10178;48.034;9.800;2022-07-04T13:56:26;25.50;99.90
20035;DHT22;10178;48.034;9.800;2022-07-04T13:58:51;25.50;99.90
20035;DHT22;10178;48.034;9.800;2022-07-04T14:01:18;25.50;99.90
20035;DHT22;10178;48.034;9.800;2022-07-04T14:03:46;25.50;99.90
20035;DHT22;10178;48.034;9.800;2022-07-04T14:06:12;25.50;99.90
20035;DHT22;10178;48.034;9.800;2022-07-04T14:08:38;25.50;99.90
20035;DHT22;10178;48.034;9.800;2022-07-04T14:11:04;25.40;99.90
20035;DHT22;10178;48.034;9.800;2022-07-04T14:13:30;25.40;99.90
20035;DHT22;10178;48.034;9.800;2022-07-04T14:15:56;25.40;99.90
20035;DHT22;10178;48.034;9.800;2022-07-04T14:18:21;25.30;99.90
20035;DHT22;10178;48.034;9.800;2022-07-04T14:20:47;25.30;99.90
20035;DHT22;10178;48.034;9.800;2022-07-04T14:23:14;25.30;99.90
20035;DHT22;10178;48.034;9.800;2022-07-04T14:26:00;25.20;99.90
20035;DHT22;10178;48.034;9.800;2022-07-04T14:28:26;25.20;99.90
20035;DHT22;10178;48.034;9.800;2022-07-04T14:30:51;25.10;99.90
20035;DHT22;10178;48.034;9.800;2022-07-04T14:33:17;25.10;99.90
20035;DHT22;10178;48.034;9.800;2022-07-04T14:35:42;25.40;99.90
20035;DHT22;10178;48.034;9.800;2022-07-04T14:38:08;25.70;99.90
20035;DHT22;10178;48.034;9.800;2022-07-04T14:40:34;26.00;99.90
20035;DHT22;10178;48.034;9.800;2022-07-04T14:42:59;26.30;99.90
20035;DHT22;10178;48.034;9.800;2022-07-04T14:45:25;26.50;99.90
20035;DHT22;10178;48.034;9.800;2022-07-04T14:47:50;26.80;99.90
20035;DHT22;10178;48.034;9.800;2022-07-04T14:50:16;26.90;99.90
20035;DHT22;10178;48.034;9.800;2022-07-04T14:52:43;27.00;99.90
20035;DHT22;10178;48.034;9.800;2022-07-04T14:55:08;27.10;99.90
20035;DHT22;10178;48.034;9.800;2022-07-04T14:57:34;27.10;99.90
20035;DHT22;10178;48.034;9.800;2022-07-04T15:00:00;27.10;99.90
20035;DHT22;10178;48.034;9.800;2022-07-04T15:02:25;27.20;99.90
20035;DHT22;10178;48.034;9.800;2022-07-04T15:04:51;27.20;99.90
20035;DHT22;10178;48.034;9.800;2022-07-04T15:07:16;27.20;99.90
20035;DHT22;10178;48.034;9.800;2022-07-04T15:09:42;27.20;99.90
20035;DHT22;10178;48.034;9.800;2022-07-04T15:12:13;27.10;99.90
20035;DHT22;10178;48.034;9.800;2022-07-04T15:14:39;26.40;99.90
20035;DHT22;10178;48.034;9.800;2022-07-04T15:17:04;25.30;99.90
20035;DHT22;10178;48.034;9.800;2022-07-04T15:19:30;24.80;99.90
20035;DHT22;10178;48.034;9.800;2022-07-04T15:21:55;25.00;99.90
20035;DHT22;10178;48.034;9.800;2022-07-04T15:24:39;25.50;99.90
20035;DHT22;10178;48.034;9.800;2022-07-04T15:27:05;26.00;99.90
20035;DHT22;10178;48.034;9.800;2022-07-04T15:29:30;26.30;99.90
20035;DHT22;10178;48.034;9.800;2022-07-04T15:31:56;26.10;99.90
20035;DHT22;10178;48.034;9.800;2022-07-04T15:34:22;26.10;99.90
20035;DHT22;10178;48.034;9.800;2022-07-04T15:36:47;25.90;99.90
20035;DHT22;10178;48.034;9.800;2022-07-04T15:39:15;25.80;99.90
20035;DHT22;10178;48.034;9.800;2022-07-04T15:41:42;25.60;99.90
20035;DHT22;10178;48.034;9.800;2022-07-04T15:44:08;25.50;99.90
20035;DHT22;10178;48.034;9.800;2022-07-04T15:46:34;25.40;99.90
20035;DHT22;10178;48.034;9.800;2022-07-04T15:49:03;25.30;99.90
20035;DHT22;10178;48.034;9.800;2022-07-04T15:51:29;25.20;99.90
20035;DHT22;10178;48.034;9.800;2022-07-04T15:53:55;24.80;99.90
20035;DHT22;10178;48.034;9.800;2022-07-04T15:56:20;23.70;99.90
20035;DHT22;10178;48.034;9.800;2022-07-04T15:58:47;22.70;99.90
20035;DHT22;10178;48.034;9.800;2022-07-04T16:01:13;22.00;99.90
20035;DHT22;10178;48.034;9.800;2022-07-04T16:03:39;21.80;99.90